createdAt,value
2022-11-05T00:01:55.648Z,78.42
2022-11-05T00:04:42.261Z,78.23
2022-11-05T00:08:14.154Z,77.37
2022-11-05T00:10:42.915Z,77.82
2022-11-05T00:13:29.492Z,78.08
2022-11-05T00:16:16.555Z,78.45
2022-11-05T00:18:44.868Z,78.55
2022-11-05T00:21:53.772Z,78.98
2022-11-05T00:24:42.227Z,79.40
2022-11-05T00:27:11.104Z,79.69
2022-11-05T00:29:39.488Z,79.64
2022-11-05T00:32:07.874Z,79.51
2022-11-05T00:34:36.214Z,79.50
2022-11-05T00:37:04.470Z,79.07
2022-11-05T00:39:32.804Z,79.26
2022-11-05T00:42:19.496Z,78.96
2022-11-05T00:45:02.903Z,79.31
2022-11-05T00:47:51.876Z,80.01
2022-11-05T00:50:21.921Z,79.38
2022-11-05T00:52:55.818Z,79.86
2022-11-05T00:55:41.112Z,79.89
2022-11-05T00:58:12.642Z,80.02
2022-11-05T01:00:44.260Z,80.23
2022-11-05T01:03:16.024Z,80.47
2022-11-05T01:05:51.160Z,81.13
2022-11-05T01:08:21.786Z,79.73
2022-11-05T01:10:54.203Z,79.06
2022-11-05T01:13:30.127Z,79.36
2022-11-05T01:16:04.453Z,79.35
2022-11-05T01:18:32.749Z,79.65
2022-11-05T01:21:10.295Z,79.75
2022-11-05T01:23:38.549Z,80.01
2022-11-05T01:26:06.949Z,79.59
2022-11-05T01:28:35.440Z,79.46
2022-11-05T01:31:04.063Z,79.75
2022-11-05T01:33:32.443Z,79.39
2022-11-05T01:36:00.760Z,79.33
2022-11-05T01:38:28.996Z,79.28
2022-11-05T01:40:57.334Z,79.81
2022-11-05T01:43:25.643Z,79.88
2022-11-05T01:45:58.741Z,79.17
2022-11-05T01:48:36.355Z,78.80
2022-11-05T01:51:12.245Z,79.29
2022-11-05T01:53:47.841Z,79.62
2022-11-05T01:56:35.699Z,79.45
2022-11-05T01:59:11.700Z,79.28
2022-11-05T02:01:40.208Z,79.54
2022-11-05T02:04:19.990Z,79.56
2022-11-05T02:06:48.423Z,79.90
2022-11-05T02:09:35.043Z,79.94
2022-11-05T02:12:03.831Z,79.74
2022-11-05T02:14:32.526Z,79.58
2022-11-05T02:17:19.534Z,79.02
2022-11-05T02:19:56.697Z,79.15
2022-11-05T02:23:17.957Z,79.36
2022-11-05T02:26:07.597Z,79.68
2022-11-05T02:28:57.632Z,79.81
2022-11-05T02:31:59.853Z,79.54
2022-11-05T02:34:51.822Z,79.51
2022-11-05T02:37:46.471Z,79.01
2022-11-05T02:41:03.174Z,78.89
2022-11-05T02:43:52.936Z,79.30
2022-11-05T02:46:36.742Z,79.40
2022-11-05T02:49:18.379Z,79.69
2022-11-05T02:52:05.354Z,80.08
2022-11-05T02:54:34.556Z,79.32
2022-11-05T02:57:04.987Z,78.82
2022-11-05T02:59:33.567Z,79.04
2022-11-05T03:02:03.899Z,79.12
2022-11-05T03:04:33.134Z,79.29
2022-11-05T03:07:07.269Z,79.05
2022-11-05T03:09:46.011Z,79.16
2022-11-05T03:12:30.229Z,78.87
2022-11-05T03:15:15.477Z,79.33
2022-11-05T03:18:26.607Z,79.18
2022-11-05T03:21:12.717Z,79.25
2022-11-05T03:23:47.435Z,79.53
2022-11-05T03:26:25.057Z,79.17
2022-11-05T03:29:06.733Z,79.03
2022-11-05T03:31:37.336Z,78.75
2022-11-05T03:34:08.136Z,79.20
2022-11-05T03:36:45.944Z,79.01
2022-11-05T03:39:48.170Z,79.18
2022-11-05T03:42:25.880Z,79.21
2022-11-05T03:44:59.814Z,78.94
2022-11-05T03:47:37.368Z,79.20
2022-11-05T03:50:22.192Z,79.40
2022-11-05T03:53:00.245Z,79.37
2022-11-05T03:55:44.011Z,79.40
2022-11-05T03:58:13.978Z,79.43
2022-11-05T04:00:42.688Z,79.39
2022-11-05T04:03:11.318Z,79.24
2022-11-05T04:05:40.347Z,79.30
2022-11-05T04:08:28.420Z,79.37
2022-11-05T04:11:15.120Z,79.21
2022-11-05T04:13:43.350Z,78.84
2022-11-05T04:16:29.970Z,79.01
2022-11-05T04:18:58.179Z,78.42
2022-11-05T04:21:44.900Z,78.69
2022-11-05T04:24:13.276Z,78.79
2022-11-05T04:26:44.224Z,79.02
2022-11-05T04:29:30.808Z,78.90
2022-11-05T04:31:59.096Z,78.57
2022-11-05T04:34:27.482Z,78.93
2022-11-05T04:36:56.249Z,79.03
2022-11-05T04:39:24.584Z,79.48
2022-11-05T04:41:52.871Z,79.08
2022-11-05T04:44:21.164Z,79.07
2022-11-05T04:46:49.409Z,79.36
2022-11-05T04:49:17.684Z,78.97
2022-11-05T04:51:45.934Z,79.41
2022-11-05T04:54:14.204Z,78.78
2022-11-05T04:56:42.439Z,79.49
2022-11-05T04:59:10.939Z,79.51
2022-11-05T05:01:39.357Z,79.40
2022-11-05T05:04:07.860Z,79.12
2022-11-05T05:06:36.497Z,78.91
2022-11-05T05:09:04.725Z,79.21
2022-11-05T05:11:33.072Z,79.28
2022-11-05T05:14:01.385Z,79.35
2022-11-05T05:16:29.684Z,79.16
2022-11-05T05:18:58.459Z,79.05
2022-11-05T05:21:38.614Z,79.04
2022-11-05T05:24:09.416Z,79.14
2022-11-05T05:26:40.194Z,79.26
2022-11-05T05:29:09.258Z,79.35
2022-11-05T05:31:37.683Z,79.50
2022-11-05T05:34:07.569Z,79.01
2022-11-05T05:36:35.804Z,78.92
2022-11-05T05:39:08.618Z,79.09
2022-11-05T05:41:37.066Z,79.07
2022-11-05T05:44:06.673Z,79.44
2022-11-05T05:46:34.951Z,79.30
2022-11-05T05:49:06.720Z,79.02
2022-11-05T05:51:39.741Z,78.87
2022-11-05T05:54:08.314Z,79.19
2022-11-05T05:56:36.593Z,79.53
2022-11-05T05:59:06.418Z,79.57
2022-11-05T06:01:34.850Z,79.21
2022-11-05T06:04:03.410Z,78.92
2022-11-05T06:06:31.810Z,78.72
2022-11-05T06:09:00.097Z,78.58
2022-11-05T06:11:28.442Z,78.56
2022-11-05T06:13:57.719Z,78.49
2022-11-05T06:16:26.075Z,78.45
2022-11-05T06:18:54.325Z,78.59
2022-11-05T06:21:22.586Z,78.42
2022-11-05T06:23:50.926Z,78.01
2022-11-05T06:26:19.607Z,77.96
2022-11-05T06:28:47.915Z,78.23
2022-11-05T06:31:16.927Z,78.09
2022-11-05T06:33:45.327Z,78.26
2022-11-05T06:36:16.918Z,77.89
2022-11-05T06:38:45.327Z,77.57
2022-11-05T06:41:13.956Z,77.39
2022-11-05T06:43:42.737Z,77.03
2022-11-05T06:46:12.019Z,77.03
2022-11-05T06:48:40.803Z,77.34
2022-11-05T06:51:09.739Z,77.22
2022-11-05T06:53:38.099Z,77.33
2022-11-05T06:56:08.238Z,77.07
2022-11-05T06:58:36.961Z,77.12
2022-11-05T07:01:09.368Z,76.82
2022-11-05T07:03:38.863Z,76.81
2022-11-05T07:06:08.086Z,76.71
2022-11-05T07:08:38.097Z,76.72
2022-11-05T07:11:06.746Z,77.05
2022-11-05T07:13:35.233Z,76.33
2022-11-05T07:16:03.788Z,76.25
2022-11-05T07:18:32.353Z,76.50
2022-11-05T07:21:01.227Z,76.47
2022-11-05T07:23:29.722Z,76.41
2022-11-05T07:26:00.033Z,76.20
2022-11-05T07:28:28.529Z,76.17
2022-11-05T07:30:59.305Z,75.37
2022-11-05T07:33:32.346Z,75.56
2022-11-05T07:36:03.963Z,75.40
2022-11-05T07:38:32.454Z,75.51
2022-11-05T07:41:00.883Z,76.13
2022-11-05T07:43:29.289Z,75.74
2022-11-05T07:45:57.710Z,75.57
2022-11-05T07:48:26.126Z,75.64
2022-11-05T07:50:54.741Z,75.55
2022-11-05T07:53:23.178Z,75.29
2022-11-05T07:55:52.745Z,75.42
2022-11-05T07:58:21.131Z,75.07
2022-11-05T08:00:49.596Z,75.26
2022-11-05T08:03:19.221Z,75.40
2022-11-05T08:05:48.319Z,75.58
2022-11-05T08:08:20.081Z,75.33
2022-11-05T08:10:48.512Z,75.32
2022-11-05T08:13:17.943Z,74.37
2022-11-05T08:15:46.342Z,74.50
2022-11-05T08:18:18.236Z,74.66
2022-11-05T08:20:47.123Z,74.39
2022-11-05T08:23:15.920Z,74.20
2022-11-05T08:25:44.629Z,73.69
2022-11-05T08:28:13.605Z,72.87
2022-11-05T08:30:42.540Z,73.41
2022-11-05T08:33:14.716Z,73.64
2022-11-05T08:35:43.403Z,74.03
2022-11-05T08:38:14.370Z,73.55
2022-11-05T08:40:44.667Z,72.55
2022-11-05T08:43:14.933Z,72.79
2022-11-05T08:45:43.479Z,72.49
2022-11-05T08:48:17.684Z,72.52
2022-11-05T08:50:48.279Z,71.82
2022-11-05T08:53:16.864Z,71.84
2022-11-05T08:55:47.763Z,71.88
2022-11-05T08:58:17.444Z,71.75
2022-11-05T09:00:50.166Z,71.66
2022-11-05T09:03:19.048Z,71.57
2022-11-05T09:05:47.535Z,71.99
2022-11-05T09:08:19.178Z,72.17
2022-11-05T09:10:49.870Z,72.53
2022-11-05T09:13:20.128Z,72.38
2022-11-05T09:15:50.376Z,72.16
2022-11-05T09:18:20.197Z,72.07
2022-11-05T09:20:48.855Z,71.89
2022-11-05T09:23:17.596Z,71.37
2022-11-05T09:25:46.785Z,71.87
2022-11-05T09:28:21.602Z,71.13
2022-11-05T09:30:52.856Z,71.16
2022-11-05T09:33:25.053Z,71.18
2022-11-05T09:35:53.878Z,71.22
2022-11-05T09:38:22.332Z,71.56
2022-11-05T09:41:19.805Z,71.50
2022-11-05T09:43:53.823Z,70.24
2022-11-05T09:46:26.504Z,70.90
2022-11-05T09:49:06.046Z,71.06
2022-11-05T09:51:36.786Z,71.28
2022-11-05T09:54:05.965Z,70.56
2022-11-05T09:56:40.561Z,70.23
2022-11-05T09:59:20.553Z,69.26
2022-11-05T10:01:50.257Z,69.63
2022-11-05T10:04:26.592Z,70.01
2022-11-05T10:07:00.319Z,69.18
2022-11-05T10:09:40.299Z,69.13
2022-11-05T10:12:22.201Z,68.33
2022-11-05T10:15:22.120Z,68.36
2022-11-05T10:18:05.161Z,68.67
2022-11-05T10:20:39.314Z,68.27
2022-11-05T10:23:17.133Z,68.27
2022-11-05T10:26:03.696Z,68.13
2022-11-05T10:28:34.282Z,68.59
2022-11-05T10:31:21.339Z,68.27
2022-11-05T10:34:06.869Z,67.56
2022-11-05T10:36:38.039Z,67.29
2022-11-05T10:39:19.136Z,67.46
2022-11-05T10:42:18.448Z,67.30
2022-11-05T10:45:31.146Z,67.47
2022-11-05T10:48:14.706Z,67.52
2022-11-05T10:50:44.674Z,66.86
2022-11-05T10:53:18.800Z,66.77
2022-11-05T10:55:49.207Z,66.33
2022-11-05T10:58:17.730Z,66.25
2022-11-05T11:00:52.321Z,66.22
2022-11-05T11:03:36.038Z,65.94
2022-11-05T11:06:34.633Z,65.38
2022-11-05T11:09:08.609Z,65.35
2022-11-05T11:11:42.859Z,65.10
2022-11-05T11:14:14.126Z,65.32
2022-11-05T11:16:50.367Z,64.93
2022-11-05T11:19:28.577Z,64.99
2022-11-05T11:22:05.826Z,65.28
2022-11-05T11:24:49.556Z,65.10
2022-11-05T11:27:27.356Z,64.92
2022-11-05T11:30:01.797Z,64.76
2022-11-05T11:32:38.562Z,64.19
2022-11-05T11:35:22.005Z,63.59
2022-11-05T11:37:54.519Z,62.67
2022-11-05T11:40:37.427Z,62.86
2022-11-05T11:43:35.912Z,63.64
2022-11-05T11:46:12.520Z,63.57
2022-11-05T11:48:47.734Z,63.47
2022-11-05T11:51:31.488Z,64.06
2022-11-05T11:54:01.678Z,63.33
2022-11-05T11:56:32.588Z,63.50
2022-11-05T11:59:16.922Z,63.35
2022-11-05T12:01:52.452Z,63.40
2022-11-05T12:04:29.266Z,63.28
2022-11-05T12:07:21.662Z,63.68
2022-11-05T12:10:28.479Z,62.61
2022-11-05T12:13:21.500Z,62.82
2022-11-05T12:16:02.498Z,62.57
2022-11-05T12:18:52.037Z,62.43
2022-11-05T12:22:11.469Z,61.72
2022-11-05T12:25:22.153Z,61.55
2022-11-05T12:27:56.920Z,61.78
2022-11-05T12:30:25.843Z,61.85
2022-11-05T12:33:18.563Z,62.04
2022-11-05T12:35:58.278Z,62.03
2022-11-05T12:39:00.589Z,61.69
2022-11-05T12:42:02.131Z,61.73
2022-11-05T12:45:15.831Z,61.53
2022-11-05T12:48:09.125Z,61.93
2022-11-05T12:50:49.230Z,61.94
2022-11-05T12:53:29.638Z,61.91
2022-11-05T12:56:04.789Z,61.15
2022-11-05T12:58:42.746Z,61.48
2022-11-05T13:01:27.105Z,60.63
2022-11-05T13:03:59.691Z,59.88
2022-11-05T13:06:38.919Z,60.47
2022-11-05T13:09:19.257Z,60.29
2022-11-05T13:11:52.349Z,60.12
2022-11-05T13:14:48.455Z,60.53
2022-11-05T13:17:27.147Z,60.14
2022-11-05T13:20:21.025Z,59.88
2022-11-05T13:22:59.203Z,58.80
2022-11-05T13:25:37.723Z,58.75
2022-11-05T13:28:29.281Z,59.49
2022-11-05T13:31:01.617Z,59.08
2022-11-05T13:33:40.592Z,58.70
2022-11-05T13:36:36.452Z,58.56
2022-11-05T13:39:29.385Z,57.82
2022-11-05T13:42:20.316Z,57.45
2022-11-05T13:45:19.413Z,57.10
2022-11-05T13:48:38.854Z,57.67
2022-11-05T13:51:07.347Z,56.68
2022-11-05T13:54:05.731Z,56.66
2022-11-05T13:57:17.564Z,56.80
2022-11-05T14:00:11.588Z,57.24
2022-11-05T14:02:48.978Z,56.31
2022-11-05T14:05:27.598Z,55.98
2022-11-05T14:07:59.215Z,56.33
2022-11-05T14:10:37.801Z,56.06
2022-11-05T14:13:29.225Z,56.56
2022-11-05T14:16:06.068Z,56.57
2022-11-05T14:18:45.106Z,56.42
2022-11-05T14:21:50.140Z,56.46
2022-11-05T14:24:38.579Z,56.01
2022-11-05T14:27:06.878Z,56.11
2022-11-05T14:29:39.507Z,56.68
2022-11-05T14:32:17.160Z,56.08
2022-11-05T14:34:54.356Z,56.18
2022-11-05T14:37:27.820Z,55.80
2022-11-05T14:39:59.349Z,56.04
2022-11-05T14:42:31.508Z,55.94
2022-11-05T14:45:03.402Z,56.30
2022-11-05T14:47:41.168Z,56.16
2022-11-05T14:50:22.337Z,56.24
2022-11-05T14:52:57.559Z,55.95
2022-11-05T14:55:36.455Z,55.26
2022-11-05T14:58:27.161Z,55.74
2022-11-05T15:00:56.820Z,55.76
2022-11-05T15:03:46.007Z,55.42
2022-11-05T15:06:36.104Z,55.19
2022-11-05T15:09:19.456Z,55.28
2022-11-05T15:11:56.974Z,55.11
2022-11-05T15:14:42.441Z,54.16
2022-11-05T15:17:23.829Z,54.12
2022-11-05T15:19:53.450Z,54.24
2022-11-05T15:22:37.229Z,54.53
2022-11-05T15:25:19.008Z,54.63
2022-11-05T15:28:01.273Z,54.48
2022-11-05T15:30:29.743Z,53.84
2022-11-05T15:33:21.529Z,53.45
2022-11-05T15:35:49.892Z,52.82
2022-11-05T15:38:36.348Z,52.98
2022-11-05T15:41:14.628Z,52.22
2022-11-05T15:43:48.411Z,52.39
2022-11-05T15:46:22.106Z,52.57
2022-11-05T15:48:54.497Z,52.37
2022-11-05T15:51:25.468Z,52.41
2022-11-05T15:54:23.993Z,52.38
2022-11-05T15:56:54.227Z,52.74
2022-11-05T15:59:26.059Z,52.34
2022-11-05T16:02:22.587Z,51.78
2022-11-05T16:04:52.010Z,51.87
2022-11-05T16:07:21.239Z,51.81
2022-11-05T16:10:01.715Z,52.02
2022-11-05T16:12:36.849Z,51.69
2022-11-05T16:15:08.324Z,51.06
2022-11-05T16:17:39.750Z,50.97
2022-11-05T16:20:29.694Z,51.36
2022-11-05T16:23:08.548Z,51.75
2022-11-05T16:25:43.465Z,51.99
2022-11-05T16:28:25.978Z,51.33
2022-11-05T16:31:05.171Z,51.60
2022-11-05T16:33:45.497Z,51.87
2022-11-05T16:36:14.166Z,52.18
2022-11-05T16:38:42.943Z,52.26
2022-11-05T16:41:17.408Z,52.35
2022-11-05T16:43:57.729Z,52.73
2022-11-05T16:46:30.250Z,52.88
2022-11-05T16:48:58.899Z,52.88
2022-11-05T16:51:30.650Z,53.07
2022-11-05T16:53:59.364Z,52.95
2022-11-05T16:56:28.129Z,53.40
2022-11-05T16:58:57.490Z,53.71
2022-11-05T17:01:27.822Z,53.66
2022-11-05T17:03:56.684Z,53.93
2022-11-05T17:06:25.329Z,54.22
2022-11-05T17:08:53.925Z,54.20
2022-11-05T17:11:22.577Z,54.48
2022-11-05T17:13:51.311Z,54.74
2022-11-05T17:16:20.032Z,54.87
2022-11-05T17:18:48.635Z,55.26
2022-11-05T17:21:17.431Z,55.55
2022-11-05T17:23:45.897Z,55.95
2022-11-05T17:26:14.578Z,56.33
2022-11-05T17:28:43.067Z,56.57
2022-11-05T17:31:14.007Z,56.72
2022-11-05T17:33:42.479Z,57.31
2022-11-05T17:36:15.800Z,57.57
2022-11-05T17:38:44.296Z,58.04
2022-11-05T17:41:19.879Z,58.37
2022-11-05T17:43:52.924Z,58.77
2022-11-05T17:46:22.442Z,60.06
2022-11-05T17:48:51.517Z,60.22
2022-11-05T17:51:20.709Z,60.26
2022-11-05T17:53:49.584Z,60.79
2022-11-05T17:56:32.459Z,61.47
2022-11-05T17:59:03.557Z,62.08
2022-11-05T18:01:35.926Z,61.98
2022-11-05T18:04:09.002Z,62.52
2022-11-05T18:06:40.415Z,63.07
2022-11-05T18:09:11.119Z,63.67
2022-11-05T18:11:40.749Z,64.08
2022-11-05T18:14:09.338Z,64.42
2022-11-05T18:16:38.286Z,64.78
2022-11-05T18:19:06.825Z,65.32
2022-11-05T18:21:35.543Z,65.43
2022-11-05T18:24:06.187Z,66.51
2022-11-05T18:26:35.431Z,66.67
2022-11-05T18:29:06.000Z,66.99
2022-11-05T18:31:34.521Z,66.99
2022-11-05T18:34:03.324Z,67.17
2022-11-05T18:36:33.033Z,67.58
2022-11-05T18:39:03.866Z,68.24
2022-11-05T18:41:32.940Z,68.39
2022-11-05T18:44:02.861Z,68.52
2022-11-05T18:49:21.440Z,69.14
2022-11-05T18:51:50.078Z,69.87
2022-11-05T18:54:18.781Z,69.83
2022-11-05T18:56:47.285Z,69.86
2022-11-05T18:59:36.664Z,70.63
2022-11-05T19:02:08.927Z,70.29
2022-11-05T19:04:37.953Z,70.44
2022-11-05T19:07:07.875Z,70.55
2022-11-05T19:09:38.464Z,71.08
2022-11-05T19:12:08.302Z,70.80
2022-11-05T19:14:36.975Z,70.85
2022-11-05T19:17:05.438Z,71.09
2022-11-05T19:19:33.934Z,71.30
2022-11-05T19:22:02.482Z,71.33
2022-11-05T19:24:31.134Z,71.68
2022-11-05T19:26:59.659Z,71.90
2022-11-05T19:29:28.284Z,71.89
2022-11-05T19:31:56.750Z,71.90
2022-11-05T19:34:25.230Z,72.16
2022-11-05T19:36:53.688Z,72.63
2022-11-05T19:39:22.346Z,72.87
2022-11-05T19:41:50.860Z,72.88
2022-11-05T19:44:19.563Z,72.57
2022-11-05T19:46:48.172Z,73.14
2022-11-05T19:49:16.642Z,73.35
2022-11-05T19:51:45.407Z,72.96
2022-11-05T19:54:13.936Z,73.34
2022-11-05T19:56:42.620Z,73.42
2022-11-05T19:59:11.344Z,73.53
2022-11-05T20:01:39.879Z,73.63
2022-11-05T20:04:09.929Z,74.34
2022-11-05T20:06:40.292Z,73.98
2022-11-05T20:09:22.480Z,73.52
2022-11-05T20:11:56.773Z,73.30
2022-11-05T20:14:26.532Z,73.52
2022-11-05T20:16:55.102Z,73.32
2022-11-05T20:19:23.902Z,73.38
2022-11-05T20:21:52.406Z,73.33
2022-11-05T20:24:25.308Z,73.32
2022-11-05T20:26:55.180Z,73.16
2022-11-05T20:29:29.069Z,73.02
2022-11-05T20:31:59.253Z,72.96
2022-11-05T20:34:29.846Z,73.08
2022-11-05T20:36:58.500Z,73.23
2022-11-05T20:39:27.600Z,73.61
2022-11-05T20:41:57.055Z,73.20
2022-11-05T20:44:25.504Z,73.10
2022-11-05T20:46:54.122Z,73.23
2022-11-05T20:49:25.372Z,74.05
2022-11-05T20:51:55.200Z,74.16
2022-11-05T20:54:24.452Z,73.57
2022-11-05T20:56:52.921Z,73.23
2022-11-05T20:59:21.636Z,73.77
2022-11-05T21:01:52.185Z,73.82
2022-11-05T21:04:20.826Z,74.37
2022-11-05T21:06:49.344Z,73.83
2022-11-05T21:09:17.822Z,74.48
2022-11-05T21:12:05.011Z,74.03
2022-11-05T21:14:33.522Z,74.08
2022-11-05T21:17:02.329Z,74.87
2022-11-05T21:19:32.310Z,74.00
2022-11-05T21:22:01.786Z,74.47
2022-11-05T21:24:30.427Z,74.04
2022-11-05T21:26:58.944Z,74.39
2022-11-05T21:29:27.507Z,74.44
2022-11-05T21:31:55.979Z,74.57
2022-11-05T21:34:24.776Z,74.60
2022-11-05T21:36:53.414Z,74.36
2022-11-05T21:39:21.971Z,74.52
2022-11-05T21:41:50.426Z,74.85
2022-11-05T21:44:19.142Z,74.48
2022-11-05T21:46:47.758Z,74.77
2022-11-05T21:49:16.232Z,74.44
2022-11-05T21:52:03.416Z,74.64
2022-11-05T21:54:50.113Z,74.25
2022-11-05T21:57:37.134Z,74.47
2022-11-05T22:00:09.790Z,74.52
2022-11-05T22:02:38.861Z,74.34
2022-11-05T22:05:08.077Z,74.48
2022-11-05T22:07:39.592Z,74.72
2022-11-05T22:10:16.214Z,74.64
2022-11-05T22:12:45.681Z,75.36
2022-11-05T22:15:14.463Z,75.41
2022-11-05T22:17:46.938Z,75.94
2022-11-05T22:20:16.664Z,75.95
2022-11-05T22:22:45.775Z,75.33
2022-11-05T22:25:15.710Z,76.68
2022-11-05T22:27:44.240Z,76.91
2022-11-05T22:30:14.565Z,77.42
2022-11-05T22:32:43.019Z,76.55
2022-11-05T22:35:11.546Z,76.28
2022-11-05T22:37:40.124Z,75.73
2022-11-05T22:40:09.837Z,75.43
2022-11-05T22:42:38.558Z,75.42
2022-11-05T22:45:07.665Z,75.40
2022-11-05T22:47:36.075Z,74.83
2022-11-05T22:50:05.339Z,74.19
2022-11-05T22:52:33.631Z,73.51
2022-11-05T22:55:03.955Z,73.21
2022-11-05T22:57:32.761Z,73.35
2022-11-05T23:00:01.034Z,72.52
2022-11-05T23:02:29.500Z,72.07
2022-11-05T23:04:57.852Z,72.23
2022-11-05T23:07:44.579Z,71.95
2022-11-05T23:10:31.304Z,72.64
2022-11-05T23:12:59.505Z,72.77
2022-11-05T23:15:46.304Z,72.66
2022-11-05T23:18:32.959Z,72.12
2022-11-05T23:21:22.988Z,72.42
2022-11-05T23:24:06.771Z,72.29
2022-11-05T23:26:52.036Z,72.08
2022-11-05T23:29:26.943Z,71.89
2022-11-05T23:32:14.367Z,72.17
2022-11-05T23:34:42.736Z,71.81
2022-11-05T23:37:29.953Z,72.00
2022-11-05T23:39:58.256Z,72.12
2022-11-05T23:42:44.976Z,71.96
2022-11-05T23:45:32.014Z,71.98
2022-11-05T23:48:17.863Z,72.05
2022-11-05T23:50:51.901Z,72.04
2022-11-05T23:53:20.292Z,72.03
2022-11-05T23:55:49.516Z,72.27
2022-11-05T23:58:18.981Z,72.49
